createdAt,value
2023-03-16T00:00:47.738Z,0.45
2023-03-16T00:03:20.532Z,0.50
2023-03-16T00:05:53.366Z,0.55
2023-03-16T00:08:20.524Z,0.40
2023-03-16T00:10:47.867Z,0.68
2023-03-16T00:13:16.293Z,0.50
2023-03-16T00:15:51.118Z,0.60
2023-03-16T00:18:18.079Z,0.45
2023-03-16T00:20:44.635Z,0.50
2023-03-16T00:23:12.031Z,0.40
2023-03-16T00:28:05.025Z,0.43
2023-03-16T00:30:32.796Z,0.40
2023-03-16T00:32:59.611Z,0.40
2023-03-16T00:35:26.243Z,0.50
2023-03-16T00:37:57.315Z,0.40
2023-03-16T00:40:24.407Z,0.40
2023-03-16T00:42:50.945Z,0.40
2023-03-16T00:45:17.659Z,0.40
2023-03-16T00:47:44.262Z,0.40
2023-03-16T00:50:11.898Z,0.40
2023-03-16T00:52:38.489Z,0.40
2023-03-16T00:55:05.396Z,0.30
2023-03-16T00:57:31.946Z,0.40
2023-03-16T00:59:59.341Z,0.43
2023-03-16T01:04:54.863Z,0.40
2023-03-16T01:07:22.150Z,0.30
2023-03-16T01:09:48.780Z,0.38
2023-03-16T01:12:17.537Z,0.40
2023-03-16T01:14:46.029Z,0.40
2023-03-16T01:17:14.259Z,0.30
2023-03-16T01:19:42.015Z,0.30
2023-03-16T01:22:10.066Z,0.35
2023-03-16T01:24:37.268Z,0.30
2023-03-16T01:27:04.611Z,0.30
2023-03-16T01:34:24.807Z,0.30
2023-03-16T01:36:51.722Z,0.38
2023-03-16T01:39:18.572Z,0.50
2023-03-16T01:41:46.796Z,0.40
2023-03-16T01:44:16.667Z,0.30
2023-03-16T01:46:44.382Z,0.40
2023-03-16T01:49:20.744Z,0.30
2023-03-16T01:51:53.113Z,0.40
2023-03-16T01:54:35.041Z,0.30
2023-03-16T01:57:10.031Z,0.40
2023-03-16T01:59:43.035Z,0.25
2023-03-16T02:02:13.662Z,0.30
2023-03-16T02:04:46.836Z,0.30
2023-03-16T02:07:17.139Z,0.30
2023-03-16T02:09:46.642Z,0.30
2023-03-16T02:12:18.548Z,0.38
2023-03-16T02:14:49.946Z,0.38
2023-03-16T02:17:23.540Z,0.30
2023-03-16T02:20:19.884Z,0.30
2023-03-16T02:22:48.935Z,0.30
2023-03-16T02:25:18.197Z,0.30
2023-03-16T02:28:19.938Z,0.30
2023-03-16T02:30:47.620Z,0.30
2023-03-16T02:33:17.103Z,0.22
2023-03-16T02:35:43.731Z,0.30
2023-03-16T02:38:10.464Z,0.30
2023-03-16T02:40:38.761Z,0.30
2023-03-16T02:43:13.475Z,0.25
2023-03-16T02:45:48.994Z,0.25
2023-03-16T02:48:24.764Z,0.30
2023-03-16T02:50:53.586Z,0.30
2023-03-16T02:53:21.198Z,0.30
2023-03-16T02:55:47.978Z,0.40
2023-03-16T02:58:14.889Z,0.50
2023-03-16T03:00:42.658Z,0.30
2023-03-16T03:03:09.620Z,0.30
2023-03-16T03:05:36.988Z,0.50
2023-03-16T03:10:31.200Z,0.30
2023-03-16T03:12:58.082Z,0.40
2023-03-16T03:15:25.069Z,0.40
2023-03-16T03:17:51.837Z,0.40
2023-03-16T03:20:19.723Z,0.30
2023-03-16T03:22:48.782Z,0.40
2023-03-16T03:25:17.245Z,0.50
2023-03-16T03:27:45.015Z,0.40
2023-03-16T03:30:15.991Z,0.47
2023-03-16T03:32:44.206Z,0.32
2023-03-16T03:35:12.926Z,0.40
2023-03-16T03:37:41.103Z,0.38
2023-03-16T03:40:10.346Z,0.40
2023-03-16T03:42:36.941Z,0.30
2023-03-16T03:45:03.920Z,0.40
2023-03-16T03:47:30.856Z,0.40
2023-03-16T03:49:57.416Z,0.40
2023-03-16T03:52:23.924Z,0.43
2023-03-16T03:54:51.524Z,0.43
2023-03-16T03:57:19.401Z,0.50
2023-03-16T03:59:46.867Z,0.40
2023-03-16T04:02:14.110Z,0.40
2023-03-16T04:07:09.964Z,0.40
2023-03-16T04:09:36.581Z,0.32
2023-03-16T04:12:04.967Z,0.40
2023-03-16T04:14:32.513Z,0.50
2023-03-16T04:16:59.463Z,0.57
2023-03-16T04:19:26.477Z,0.50
2023-03-16T04:21:53.150Z,0.40
2023-03-16T04:24:19.875Z,0.50
2023-03-16T04:26:46.482Z,0.70
2023-03-16T04:29:14.609Z,0.70
2023-03-16T04:31:42.496Z,0.43
2023-03-16T04:34:09.621Z,0.50
2023-03-16T04:36:36.152Z,0.40
2023-03-16T04:39:03.031Z,0.40
2023-03-16T04:41:29.826Z,0.30
2023-03-16T04:43:58.576Z,0.60
2023-03-16T04:46:27.469Z,0.40
2023-03-16T04:48:54.548Z,0.40
2023-03-16T04:51:21.609Z,0.57
2023-03-16T04:53:48.301Z,0.47
2023-03-16T04:56:19.809Z,1.50
2023-03-16T04:58:51.107Z,0.70
2023-03-16T05:01:18.452Z,0.90
2023-03-16T05:06:12.954Z,0.95
2023-03-16T05:08:39.582Z,1.00
2023-03-16T05:11:06.298Z,0.80
2023-03-16T05:13:33.243Z,0.55
2023-03-16T05:16:00.351Z,0.90
2023-03-16T05:18:27.134Z,1.52
2023-03-16T05:20:56.065Z,1.00
2023-03-16T05:23:23.572Z,0.70
2023-03-16T05:25:50.530Z,0.70
2023-03-16T05:28:17.384Z,0.60
2023-03-16T05:30:45.350Z,1.00
2023-03-16T05:33:12.519Z,1.08
2023-03-16T05:35:39.277Z,1.38
2023-03-16T05:38:06.209Z,0.60
2023-03-16T05:40:33.255Z,0.60
2023-03-16T05:43:00.696Z,0.50
2023-03-16T05:47:54.923Z,1.33
2023-03-16T05:50:22.405Z,1.63
2023-03-16T05:52:49.196Z,0.77
2023-03-16T05:55:17.577Z,1.25
2023-03-16T05:57:44.817Z,2.70
2023-03-16T06:00:15.716Z,1.70
2023-03-16T06:02:43.432Z,1.00
2023-03-16T06:05:11.226Z,0.80
2023-03-16T06:07:37.961Z,0.77
2023-03-16T06:10:05.564Z,0.60
2023-03-16T06:12:32.634Z,0.60
2023-03-16T06:14:59.208Z,0.77
2023-03-16T06:17:25.888Z,0.50
2023-03-16T06:19:52.498Z,0.60
2023-03-16T06:22:19.374Z,0.47
2023-03-16T06:24:45.923Z,0.65
2023-03-16T06:27:12.834Z,0.43
2023-03-16T06:29:39.462Z,0.93
2023-03-16T06:32:06.134Z,0.70
2023-03-16T06:34:32.764Z,5.57
2023-03-16T06:36:59.353Z,1.90
2023-03-16T06:39:25.930Z,2.35
2023-03-16T06:41:52.524Z,2.47
2023-03-16T06:44:19.327Z,1.55
2023-03-16T06:46:46.103Z,0.50
2023-03-16T06:49:12.746Z,0.70
2023-03-16T06:51:39.296Z,0.80
2023-03-16T06:54:05.853Z,0.43
2023-03-16T06:56:32.479Z,0.80
2023-03-16T06:58:59.218Z,0.80
2023-03-16T07:01:26.062Z,0.73
2023-03-16T07:03:52.666Z,0.90
2023-03-16T07:06:19.344Z,0.60
2023-03-16T07:08:47.357Z,1.30
2023-03-16T07:11:15.005Z,0.98
2023-03-16T07:13:42.161Z,0.90
2023-03-16T07:16:08.756Z,2.28
2023-03-16T07:18:38.029Z,3.28
2023-03-16T07:21:04.841Z,1.80
2023-03-16T07:23:32.398Z,1.70
2023-03-16T07:25:59.035Z,0.80
2023-03-16T07:28:25.635Z,0.82
2023-03-16T07:31:03.265Z,0.60
2023-03-16T07:33:33.164Z,0.70
2023-03-16T07:36:00.239Z,0.90
2023-03-16T07:38:26.823Z,0.60
2023-03-16T07:40:53.432Z,0.70
2023-03-16T07:43:20.113Z,0.77
2023-03-16T07:45:51.418Z,0.93
2023-03-16T07:48:19.172Z,1.00
2023-03-16T07:50:48.128Z,1.25
2023-03-16T07:53:15.718Z,0.68
2023-03-16T07:55:43.100Z,0.50
2023-03-16T08:00:38.268Z,0.80
2023-03-16T08:05:34.430Z,1.30
2023-03-16T08:08:01.836Z,0.80
2023-03-16T08:12:56.112Z,2.20
2023-03-16T08:15:25.154Z,0.90
2023-03-16T08:17:52.696Z,1.05
2023-03-16T08:20:19.714Z,2.10
2023-03-16T08:22:46.675Z,0.93
2023-03-16T08:25:14.976Z,0.60
2023-03-16T08:27:43.035Z,0.50
2023-03-16T08:30:11.900Z,1.00
2023-03-16T08:32:42.293Z,0.40
2023-03-16T08:35:13.535Z,0.70
2023-03-16T08:37:41.559Z,0.80
2023-03-16T08:40:17.058Z,1.00
2023-03-16T08:42:44.922Z,1.23
2023-03-16T08:45:14.438Z,0.90
2023-03-16T08:47:41.574Z,1.20
2023-03-16T08:50:09.337Z,0.88
2023-03-16T08:52:36.786Z,1.10
2023-03-16T08:57:34.416Z,1.52
2023-03-16T09:00:01.426Z,0.60
2023-03-16T09:02:28.172Z,0.60
2023-03-16T09:04:54.903Z,0.52
2023-03-16T09:07:21.988Z,1.08
2023-03-16T09:09:48.618Z,1.00
2023-03-16T09:12:15.277Z,1.10
2023-03-16T09:14:41.992Z,0.70
2023-03-16T09:17:08.580Z,0.57
2023-03-16T09:19:50.493Z,0.50
2023-03-16T09:22:19.903Z,0.50
2023-03-16T09:24:46.910Z,0.50
2023-03-16T09:27:13.582Z,0.60
2023-03-16T09:29:41.167Z,1.00
2023-03-16T09:32:08.700Z,0.50
2023-03-16T09:34:35.417Z,1.30
2023-03-16T09:37:02.635Z,0.70
2023-03-16T09:39:29.227Z,0.68
2023-03-16T09:42:02.667Z,0.60
2023-03-16T09:44:56.836Z,0.60
2023-03-16T09:47:29.133Z,0.60
2023-03-16T09:50:00.387Z,0.50
2023-03-16T09:52:49.211Z,0.80
2023-03-16T09:55:28.408Z,0.60
2023-03-16T09:57:56.161Z,1.80
2023-03-16T10:00:26.387Z,1.15
2023-03-16T10:03:11.793Z,1.13
2023-03-16T10:05:39.559Z,0.60
2023-03-16T10:08:09.102Z,0.80
2023-03-16T10:11:10.877Z,0.57
2023-03-16T10:13:37.489Z,0.70
2023-03-16T10:16:11.166Z,0.70
2023-03-16T10:18:52.378Z,0.70
2023-03-16T10:21:21.272Z,1.13
2023-03-16T10:23:49.901Z,0.57
2023-03-16T10:26:25.975Z,0.60
2023-03-16T10:28:53.071Z,0.50
2023-03-16T10:31:23.144Z,0.55
2023-03-16T10:33:56.538Z,0.50
2023-03-16T10:36:33.619Z,0.68
2023-03-16T10:41:32.968Z,1.17
2023-03-16T10:44:08.569Z,1.00
2023-03-16T10:47:04.931Z,0.95
2023-03-16T10:49:41.906Z,1.05
2023-03-16T10:52:39.917Z,1.45
2023-03-16T10:55:16.072Z,2.28
2023-03-16T10:57:48.643Z,1.05
2023-03-16T11:00:22.251Z,1.10
2023-03-16T11:02:50.502Z,1.35
2023-03-16T11:05:33.445Z,1.00
2023-03-16T11:08:02.006Z,1.10
2023-03-16T11:10:38.081Z,1.00
2023-03-16T11:13:14.686Z,1.00
2023-03-16T11:16:20.022Z,0.90
2023-03-16T11:18:53.258Z,1.15
2023-03-16T11:21:38.785Z,1.02
2023-03-16T11:24:12.025Z,1.02
2023-03-16T11:26:40.837Z,1.08
2023-03-16T11:29:18.863Z,1.10
2023-03-16T11:31:56.253Z,0.90
2023-03-16T11:34:29.014Z,1.40
2023-03-16T11:37:05.487Z,2.97
2023-03-16T11:39:58.533Z,1.70
2023-03-16T11:42:37.470Z,1.23
2023-03-16T11:45:13.183Z,1.73
2023-03-16T11:48:07.636Z,1.40
2023-03-16T11:50:48.145Z,1.15
2023-03-16T11:53:33.223Z,1.23
2023-03-16T11:56:11.832Z,1.30
2023-03-16T11:59:02.209Z,1.38
2023-03-16T12:01:31.488Z,1.35
2023-03-16T12:04:16.782Z,1.90
2023-03-16T12:07:02.166Z,1.63
2023-03-16T12:09:40.573Z,1.40
2023-03-16T12:12:22.245Z,1.80
2023-03-16T12:15:07.185Z,1.20
2023-03-16T12:17:37.787Z,1.70
2023-03-16T12:20:26.981Z,1.52
2023-03-16T12:22:59.533Z,1.70
2023-03-16T12:25:33.180Z,1.70
2023-03-16T12:28:03.153Z,1.85
2023-03-16T12:30:38.588Z,1.80
2023-03-16T12:33:13.910Z,2.00
2023-03-16T12:35:56.744Z,1.70
2023-03-16T12:38:39.822Z,1.90
2023-03-16T12:41:31.474Z,1.80
2023-03-16T12:43:58.208Z,1.80
2023-03-16T12:46:33.707Z,2.15
2023-03-16T12:49:05.244Z,2.20
2023-03-16T12:51:37.537Z,2.30
2023-03-16T12:54:06.219Z,2.35
2023-03-16T12:56:35.992Z,2.38
2023-03-16T12:59:05.777Z,2.30
2023-03-16T13:01:56.905Z,2.50
2023-03-16T13:04:41.607Z,2.40
2023-03-16T13:07:21.672Z,2.92
2023-03-16T13:10:13.836Z,2.22
2023-03-16T13:12:41.968Z,2.17
2023-03-16T13:15:12.042Z,2.35
2023-03-16T13:17:39.274Z,2.22
2023-03-16T13:23:36.581Z,2.88
2023-03-16T13:26:06.336Z,2.75
2023-03-16T13:28:36.728Z,2.80
2023-03-16T13:31:04.994Z,3.30
2023-03-16T13:33:36.772Z,2.60
2023-03-16T13:36:06.420Z,2.97
2023-03-16T13:38:33.310Z,3.20
2023-03-16T13:41:06.042Z,3.08
2023-03-16T13:43:35.905Z,3.40
2023-03-16T13:46:14.415Z,2.55
2023-03-16T13:48:41.835Z,2.60
2023-03-16T13:53:43.372Z,2.25
2023-03-16T13:56:15.090Z,2.45
2023-03-16T13:58:45.650Z,2.42
2023-03-16T14:01:38.900Z,2.75
2023-03-16T14:04:13.922Z,2.78
2023-03-16T14:06:41.492Z,2.60
2023-03-16T14:09:21.723Z,2.83
2023-03-16T14:11:48.844Z,2.70
2023-03-16T14:14:23.705Z,2.80
2023-03-16T14:16:51.337Z,2.70
2023-03-16T14:19:25.919Z,3.08
2023-03-16T14:21:52.594Z,2.80
2023-03-16T14:24:35.536Z,2.72
2023-03-16T14:27:17.115Z,2.88
2023-03-16T14:29:44.471Z,3.22
2023-03-16T14:34:50.662Z,3.10
2023-03-16T14:37:19.347Z,3.35
2023-03-16T14:39:58.120Z,3.50
2023-03-16T14:42:29.884Z,3.70
2023-03-16T14:44:59.941Z,3.47
2023-03-16T14:47:31.170Z,3.58
2023-03-16T14:50:10.187Z,3.58
2023-03-16T14:52:37.211Z,3.70
2023-03-16T14:55:12.999Z,4.18
2023-03-16T14:57:41.793Z,3.80
2023-03-16T15:00:12.170Z,3.90
2023-03-16T15:02:42.132Z,3.70
2023-03-16T15:05:15.734Z,4.40
2023-03-16T15:07:45.414Z,4.35
2023-03-16T15:10:15.496Z,3.97
2023-03-16T15:12:50.506Z,4.30
2023-03-16T15:15:19.835Z,4.35
2023-03-16T15:17:47.636Z,4.03
2023-03-16T15:20:16.899Z,4.40
2023-03-16T15:22:45.053Z,4.05
2023-03-16T15:25:37.338Z,4.68
2023-03-16T15:28:11.600Z,4.32
2023-03-16T15:30:39.105Z,5.65
2023-03-16T15:33:06.143Z,4.53
2023-03-16T15:35:32.965Z,4.40
2023-03-16T15:38:02.998Z,4.50
2023-03-16T15:40:31.509Z,4.50
2023-03-16T15:42:58.326Z,4.57
2023-03-16T15:45:25.450Z,4.45
2023-03-16T15:47:53.678Z,4.05
2023-03-16T15:50:22.255Z,4.40
2023-03-16T15:52:58.139Z,4.30
2023-03-16T15:55:33.247Z,5.63
2023-03-16T15:58:02.472Z,4.63
2023-03-16T16:00:37.915Z,4.05
2023-03-16T16:03:06.514Z,4.63
2023-03-16T16:05:33.921Z,4.88
2023-03-16T16:10:28.697Z,4.30
2023-03-16T16:12:56.984Z,4.80
2023-03-16T16:15:23.652Z,5.05
2023-03-16T16:18:08.563Z,4.43
2023-03-16T16:20:37.042Z,3.85
2023-03-16T16:23:03.616Z,4.55
2023-03-16T16:25:40.361Z,4.05
2023-03-16T16:28:19.073Z,4.80
2023-03-16T16:30:46.276Z,5.35
2023-03-16T16:33:39.807Z,5.15
2023-03-16T16:36:13.555Z,6.30
2023-03-16T16:38:40.174Z,6.70
2023-03-16T16:41:09.272Z,5.47
2023-03-16T16:43:41.821Z,5.45
2023-03-16T16:46:21.145Z,4.97
2023-03-16T16:48:54.124Z,4.68
2023-03-16T16:51:24.703Z,4.97
2023-03-16T16:53:56.918Z,4.90
2023-03-16T16:56:32.582Z,5.00
2023-03-16T16:59:14.047Z,4.40
2023-03-16T17:01:40.787Z,4.57
2023-03-16T17:04:17.466Z,4.70
2023-03-16T17:06:45.807Z,5.00
2023-03-16T17:09:14.324Z,5.00
2023-03-16T17:11:42.480Z,4.68
2023-03-16T17:14:14.834Z,5.60
2023-03-16T17:16:41.769Z,5.70
2023-03-16T17:19:21.406Z,6.28
2023-03-16T17:21:48.765Z,6.55
2023-03-16T17:26:48.865Z,5.78
2023-03-16T17:29:23.064Z,6.93
2023-03-16T17:31:50.615Z,6.32
2023-03-16T17:34:23.269Z,6.53
2023-03-16T17:36:51.275Z,6.78
2023-03-16T17:39:29.522Z,6.93
2023-03-16T17:42:06.217Z,6.53
2023-03-16T17:44:36.095Z,6.95
2023-03-16T17:47:02.980Z,6.60
2023-03-16T17:49:30.844Z,7.05
2023-03-16T17:51:57.864Z,6.40
2023-03-16T17:54:24.644Z,6.57
2023-03-16T17:56:54.191Z,5.53
2023-03-16T17:59:22.195Z,8.23
2023-03-16T18:01:49.414Z,6.40
2023-03-16T18:04:21.237Z,6.60
2023-03-16T18:06:49.246Z,7.75
2023-03-16T18:09:17.958Z,6.97
2023-03-16T18:11:47.680Z,7.50
2023-03-16T18:14:35.587Z,6.97
2023-03-16T18:17:07.816Z,5.82
2023-03-16T18:19:34.448Z,6.60
2023-03-16T18:22:01.046Z,7.93
2023-03-16T18:24:28.281Z,6.80
2023-03-16T18:26:55.438Z,6.72
2023-03-16T18:29:22.469Z,6.63
2023-03-16T18:31:56.997Z,6.47
2023-03-16T18:34:26.231Z,6.15
2023-03-16T18:36:55.836Z,6.72
2023-03-16T18:39:22.628Z,6.60
2023-03-16T18:41:49.913Z,9.45
2023-03-16T18:46:46.315Z,10.20
2023-03-16T18:49:12.841Z,7.55
2023-03-16T18:51:39.464Z,6.53
2023-03-16T18:54:25.762Z,8.77
2023-03-16T18:56:53.913Z,7.65
2023-03-16T18:59:21.056Z,7.63
2023-03-16T19:01:48.471Z,7.28
2023-03-16T19:04:45.140Z,6.55
2023-03-16T19:07:24.298Z,7.28
2023-03-16T19:09:51.582Z,7.57
2023-03-16T19:12:20.680Z,7.10
2023-03-16T19:14:47.748Z,7.40
2023-03-16T19:17:14.370Z,7.50
2023-03-16T19:19:41.057Z,6.80
2023-03-16T19:22:15.792Z,6.70
2023-03-16T19:24:54.089Z,6.38
2023-03-16T19:27:33.025Z,6.30
2023-03-16T19:29:59.675Z,6.20
2023-03-16T19:32:26.395Z,6.85
2023-03-16T19:34:54.070Z,5.15
2023-03-16T19:37:23.855Z,7.07
2023-03-16T19:39:50.555Z,6.30
2023-03-16T19:42:33.700Z,4.85
2023-03-16T19:45:00.986Z,6.75
2023-03-16T19:47:30.990Z,6.57
2023-03-16T19:49:59.023Z,7.30
2023-03-16T19:52:28.195Z,8.82
2023-03-16T19:54:57.471Z,7.13
2023-03-16T19:57:24.253Z,6.97
2023-03-16T19:59:55.628Z,6.93
2023-03-16T20:02:43.218Z,6.88
2023-03-16T20:05:17.616Z,6.65
2023-03-16T20:07:44.155Z,6.70
2023-03-16T20:10:17.088Z,5.10
2023-03-16T20:12:44.094Z,6.50
2023-03-16T20:15:21.177Z,7.60
2023-03-16T20:17:48.467Z,7.38
2023-03-16T20:25:21.216Z,6.43
2023-03-16T20:27:54.016Z,7.97
2023-03-16T20:30:20.829Z,6.78
2023-03-16T20:32:47.848Z,4.97
2023-03-16T20:35:19.357Z,6.07
2023-03-16T20:37:46.383Z,6.90
2023-03-16T20:40:13.580Z,6.18
2023-03-16T20:42:40.636Z,6.07
2023-03-16T20:45:19.525Z,6.30
2023-03-16T20:47:46.273Z,6.10
2023-03-16T20:50:22.791Z,6.35
2023-03-16T20:52:50.560Z,6.50
2023-03-16T20:55:19.797Z,6.93
2023-03-16T20:57:47.766Z,6.43
2023-03-16T21:00:23.200Z,6.90
2023-03-16T21:02:49.852Z,6.40
2023-03-16T21:05:16.698Z,6.18
2023-03-16T21:07:43.264Z,5.90
2023-03-16T21:10:15.154Z,6.40
2023-03-16T21:12:46.011Z,5.68
2023-03-16T21:15:33.405Z,5.65
2023-03-16T21:18:06.562Z,6.15
2023-03-16T21:20:35.662Z,6.13
2023-03-16T21:23:02.618Z,5.97
2023-03-16T21:25:36.885Z,5.93
2023-03-16T21:28:05.346Z,5.72
2023-03-16T21:30:42.905Z,5.60
2023-03-16T21:33:35.754Z,5.72
2023-03-16T21:36:04.330Z,5.82
2023-03-16T21:38:32.321Z,6.20
2023-03-16T21:40:59.806Z,6.35
2023-03-16T21:43:27.449Z,6.07
2023-03-16T21:45:55.214Z,5.85
2023-03-16T21:48:24.879Z,6.03
2023-03-16T21:50:53.092Z,6.13
2023-03-16T21:53:31.819Z,6.30
2023-03-16T21:55:58.820Z,5.88
2023-03-16T21:58:26.090Z,5.72
2023-03-16T22:00:54.592Z,6.15
2023-03-16T22:03:24.055Z,5.68
2023-03-16T22:05:51.212Z,5.45
2023-03-16T22:08:24.180Z,6.00
2023-03-16T22:10:51.470Z,5.72
2023-03-16T22:15:48.415Z,5.53
2023-03-16T22:18:34.688Z,5.47
2023-03-16T22:21:11.105Z,5.97
2023-03-16T22:23:37.751Z,6.03
2023-03-16T22:26:06.257Z,4.13
2023-03-16T22:28:34.215Z,5.97
2023-03-16T22:31:04.370Z,5.80
2023-03-16T22:33:35.016Z,5.60
2023-03-16T22:36:08.341Z,6.20
2023-03-16T22:38:36.425Z,5.93
2023-03-16T22:41:03.372Z,6.07
2023-03-16T22:43:34.686Z,5.82
2023-03-16T22:46:01.568Z,6.20
2023-03-16T22:48:31.213Z,5.90
2023-03-16T22:51:02.475Z,5.93
2023-03-16T22:53:41.512Z,5.63
2023-03-16T22:56:10.594Z,5.80
2023-03-16T22:58:49.903Z,5.68
2023-03-16T23:01:23.530Z,6.00
2023-03-16T23:03:52.952Z,5.95
2023-03-16T23:06:22.846Z,5.20
2023-03-16T23:08:49.970Z,5.60
2023-03-16T23:11:21.661Z,5.93
2023-03-16T23:13:48.914Z,5.25
2023-03-16T23:16:25.092Z,5.65
2023-03-16T23:18:52.477Z,5.40
2023-03-16T23:23:57.153Z,4.85
2023-03-16T23:26:29.482Z,4.95
2023-03-16T23:28:57.045Z,5.10
2023-03-16T23:31:26.195Z,4.93
2023-03-16T23:33:52.995Z,5.20
2023-03-16T23:36:21.825Z,5.10
2023-03-16T23:38:49.479Z,4.47
2023-03-16T23:41:20.474Z,5.30
2023-03-16T23:43:48.478Z,4.60
2023-03-16T23:46:18.715Z,4.15
2023-03-16T23:48:47.402Z,4.50
2023-03-16T23:51:26.499Z,4.50
2023-03-16T23:53:53.375Z,4.47
2023-03-16T23:56:20.448Z,5.10
2023-03-16T23:58:47.018Z,4.95
